Time;durP1;ratioP1;P1;durP2;ratioP2;P2;SDS_P1;SDS_P2;PMS_P1;PMS_P2;Temp;Humidity;BMP_temperature;BMP_pressure;BME280_temperature;BME280_humidity;BME280_pressure;Samples;Min_cycle;Max_cycle;Signal;HPM_P1;HPM_P2
2021/12/09 00:00:37;;;;;;;27.58;13.62;;;;;;;1.66;85.12;97000.09;1775908;80;20997;-76
2021/12/09 00:03:06;;;;;;;27.20;13.95;;;;;;;1.65;84.96;96997.48;1752972;81;21080;-76
2021/12/09 00:05:30;;;;;;;27.48;13.72;;;;;;;1.63;84.97;97008.40;1753902;82;20985;-76
2021/12/09 00:07:57;;;;;;;26.62;13.40;;;;;;;1.59;85.01;97004.96;1754446;81;21054;-76
2021/12/09 00:10:24;;;;;;;27.67;14.20;;;;;;;1.55;85.08;97008.48;1721765;80;20977;-76
2021/12/09 00:12:50;;;;;;;28.25;14.28;;;;;;;1.52;85.02;97005.88;1719227;83;21351;-76
2021/12/09 00:15:17;;;;;;;27.37;13.75;;;;;;;1.47;85.30;97017.69;1719309;83;20997;-76
2021/12/09 00:17:44;;;;;;;34.50;15.15;;;;;;;1.43;85.36;97018.59;1719434;83;20992;-76
2021/12/09 00:20:10;;;;;;;31.45;15.68;;;;;;;1.42;85.14;97022.09;1775051;80;21000;-76
2021/12/09 00:22:37;;;;;;;28.55;14.18;;;;;;;1.38;85.15;97019.08;1785492;80;21402;-76
2021/12/09 00:25:04;;;;;;;29.05;14.65;;;;;;;1.33;85.26;97008.69;1785460;80;20992;-76
2021/12/09 00:27:31;;;;;;;33.02;15.55;;;;;;;1.29;85.19;97014.80;1785653;80;21016;-76
2021/12/09 00:29:57;;;;;;;30.15;14.63;;;;;;;1.23;85.27;97006.58;1736555;80;20977;-76
2021/12/09 00:32:24;;;;;;;27.20;14.13;;;;;;;1.15;85.38;97002.73;1719339;83;21429;-76
2021/12/09 00:34:51;;;;;;;29.15;15.15;;;;;;;1.08;85.17;97002.33;1719327;83;20981;-76
2021/12/09 00:37:29;;;;;;;27.52;14.75;;;;;;;1.01;85.49;97007.19;1740966;80;20973;-76
2021/12/09 00:39:52;;;;;;;29.63;14.80;;;;;;;0.91;85.45;97013.77;1755597;80;21044;-76
2021/12/09 00:42:22;;;;;;;27.35;14.75;;;;;;;0.86;85.25;97015.55;1785609;80;20993;-76
2021/12/09 00:44:51;;;;;;;26.25;13.20;;;;;;;0.80;85.49;97010.38;1785595;80;20957;-76
2021/12/09 00:47:17;;;;;;;23.75;12.63;;;;;;;0.76;85.75;97019.97;1775937;80;21012;-76
2021/12/09 00:49:45;;;;;;;24.10;12.33;;;;;;;0.74;85.94;97015.61;1754637;81;21069;-76
2021/12/09 00:52:13;;;;;;;22.35;11.18;;;;;;;0.73;86.23;97016.48;1754724;82;21035;-76
2021/12/09 00:54:42;;;;;;;22.48;12.33;;;;;;;0.73;86.32;97008.66;1749355;81;20996;-76
2021/12/09 00:57:11;;;;;;;21.82;11.53;;;;;;;0.73;86.50;97013.88;1749224;82;21342;-76
2021/12/09 00:59:38;;;;;;;22.67;11.60;;;;;;;0.69;86.52;97006.95;1749339;82;21000;-76
2021/12/09 01:02:04;;;;;;;22.80;10.98;;;;;;;0.67;86.94;97012.63;1749209;82;20988;-75
2021/12/09 01:04:31;;;;;;;20.30;10.63;;;;;;;0.68;86.94;97022.17;1749432;82;21369;-75
2021/12/09 01:06:57;;;;;;;19.20;10.20;;;;;;;0.66;87.10;97018.27;1749251;82;20953;-75
2021/12/09 01:09:24;;;;;;;22.77;10.15;;;;;;;0.64;87.15;97013.52;1747148;80;21346;-76
2021/12/09 01:11:50;;;;;;;20.88;10.45;;;;;;;0.62;87.17;97011.36;1714009;83;21009;-75
2021/12/09 01:14:17;;;;;;;20.80;9.95;;;;;;;0.60;87.16;97019.61;1713920;84;21012;-75
2021/12/09 01:16:43;;;;;;;19.00;10.03;;;;;;;0.57;87.06;97013.98;1715017;80;21020;-76
2021/12/09 01:19:10;;;;;;;21.15;10.65;;;;;;;0.54;86.94;97010.07;1724756;80;21049;-76
2021/12/09 01:21:37;;;;;;;19.87;10.13;;;;;;;0.50;86.82;97009.69;1714443;80;21051;-76
2021/12/09 01:24:04;;;;;;;23.30;11.15;;;;;;;0.46;86.88;97018.39;1713621;84;21521;-76
2021/12/09 01:26:31;;;;;;;20.60;10.60;;;;;;;0.44;86.67;97020.13;1714021;84;21435;-76
2021/12/09 01:29:02;;;;;;;19.95;10.35;;;;;;;0.41;86.70;97017.09;1747307;80;20908;-75
2021/12/09 01:31:31;;;;;;;18.37;9.85;;;;;;;0.39;86.66;97024.07;1749048;82;20976;-76
2021/12/09 01:34:00;;;;;;;23.32;10.23;;;;;;;0.42;86.56;97019.28;1748812;81;20999;-76
2021/12/09 01:36:23;;;;;;;21.62;10.05;;;;;;;0.44;86.76;97011.00;1748627;81;21402;-76
2021/12/09 01:38:49;;;;;;;19.17;10.03;;;;;;;0.49;86.88;97004.02;1746510;80;21050;-76
2021/12/09 01:41:17;;;;;;;19.25;9.60;;;;;;;0.58;86.98;97009.64;1749415;82;21044;-76
2021/12/09 01:43:44;;;;;;;19.60;9.55;;;;;;;0.64;86.87;97008.30;1749252;82;21036;-76
2021/12/09 01:46:15;;;;;;;15.98;9.58;;;;;;;0.71;86.78;96997.39;1749702;80;21008;-76
2021/12/09 01:48:45;;;;;;;17.30;9.40;;;;;;;0.77;86.71;96999.95;1749209;82;20995;-76
2021/12/09 01:51:12;;;;;;;16.12;8.73;;;;;;;0.84;86.72;97007.30;1749141;82;21008;-76
2021/12/09 01:53:40;;;;;;;14.20;8.20;;;;;;;0.88;86.67;97004.65;1748284;82;21060;-76
2021/12/09 01:56:11;;;;;;;15.58;8.65;;;;;;;0.97;86.45;97008.08;1746979;82;21399;-76
2021/12/09 01:58:38;;;;;;;14.47;8.23;;;;;;;1.01;86.47;97000.66;1747212;82;21079;-76
2021/12/09 02:01:06;;;;;;;17.70;9.55;;;;;;;1.05;86.32;97000.61;1747204;82;21712;-76
2021/12/09 02:03:34;;;;;;;14.43;8.08;;;;;;;1.10;86.33;96999.29;1747491;82;21455;-76
2021/12/09 02:06:02;;;;;;;16.55;8.48;;;;;;;1.15;85.55;97015.78;1747196;82;21445;-76
2021/12/09 02:08:29;;;;;;;13.05;7.75;;;;;;;1.17;85.71;97006.17;1747328;82;21053;-76
2021/12/09 02:10:55;;;;;;;13.75;7.95;;;;;;;1.22;85.33;96986.58;1747373;82;21481;-76
2021/12/09 02:13:22;;;;;;;14.15;7.87;;;;;;;1.25;85.42;96978.70;1747428;82;21521;-76
2021/12/09 02:15:52;;;;;;;12.70;6.90;;;;;;;1.28;85.52;96971.28;1747193;82;20941;-77
2021/12/09 02:18:21;;;;;;;12.80;6.80;;;;;;;1.33;85.42;96969.52;1747005;82;21414;-76
2021/12/09 02:21:08;;;;;;;14.18;7.47;;;;;;;1.35;85.36;96971.67;1747329;82;20977;-76
2021/12/09 02:23:39;;;;;;;10.35;6.75;;;;;;;1.37;85.27;96964.67;1747445;82;20993;-77
2021/12/09 02:26:05;;;;;;;10.55;6.40;;;;;;;1.37;84.63;96966.44;1684257;83;21088;-76
2021/12/09 02:28:33;;;;;;;12.40;6.85;;;;;;;1.36;84.12;96971.24;1717670;83;21446;-76
2021/12/09 02:30:59;;;;;;;11.20;6.62;;;;;;;1.36;84.58;96974.70;1717732;83;21017;-76
2021/12/09 02:33:26;;;;;;;10.30;6.17;;;;;;;1.39;84.59;96975.98;1717726;83;21024;-76
2021/12/09 02:35:52;;;;;;;8.48;5.65;;;;;;;1.40;84.29;96979.44;1746020;82;20977;-75
2021/12/09 02:38:19;;;;;;;10.70;6.10;;;;;;;1.39;83.78;96979.02;1747142;82;21041;-76
2021/12/09 02:40:48;;;;;;;9.58;6.10;;;;;;;1.41;83.77;96974.22;1741333;82;21449;-76
2021/12/09 02:43:18;;;;;;;12.50;6.42;;;;;;;1.39;83.56;96975.98;1721977;82;21045;-75
2021/12/09 02:45:52;;;;;;;12.47;7.47;;;;;;;1.35;82.46;96985.15;1746258;82;21354;-76
2021/12/09 02:48:20;;;;;;;16.35;9.58;;;;;;;1.35;83.25;96982.54;1746145;81;21025;-76
2021/12/09 02:50:48;;;;;;;21.73;10.60;;;;;;;1.31;83.00;96983.02;1747420;82;21048;-76
2021/12/09 02:53:16;;;;;;;23.90;12.40;;;;;;;1.23;82.98;96983.08;1744350;82;21718;-75
2021/12/09 02:55:44;;;;;;;22.93;12.50;;;;;;;1.21;83.22;96991.37;1722455;83;21014;-75
2021/12/09 02:58:12;;;;;;;22.80;11.93;;;;;;;1.13;83.46;96987.95;1716617;83;21056;-76
2021/12/09 03:01:12;;;;;;;21.55;11.35;;;;;;;1.08;83.50;96983.22;1716506;84;21064;-76
2021/12/09 03:03:36;;;;;;;21.68;11.60;;;;;;;1.06;83.58;96988.44;1730477;82;21048;-75
2021/12/09 03:06:02;;;;;;;22.22;10.68;;;;;;;0.99;83.64;96991.53;1730615;82;21428;-76
2021/12/09 03:08:36;;;;;;;24.75;12.07;;;;;;;0.96;83.87;96988.97;1729110;83;21093;-76
2021/12/09 03:11:13;;;;;;;23.90;11.30;;;;;;;0.95;83.81;96987.67;1729281;83;20957;-76
2021/12/09 03:13:42;;;;;;;24.67;12.25;;;;;;;0.85;83.79;96974.69;1731829;82;21359;-76
2021/12/09 03:16:09;;;;;;;21.82;11.30;;;;;;;0.90;84.03;96993.78;1738976;82;20996;-76
2021/12/09 03:18:44;;;;;;;23.38;11.88;;;;;;;0.90;83.99;97000.30;1739127;82;21055;-75
2021/12/09 03:21:19;;;;;;;28.40;13.45;;;;;;;0.88;84.12;97003.80;1737577;82;21071;-77
2021/12/09 03:23:46;;;;;;;26.70;12.85;;;;;;;0.86;84.12;96989.45;1729496;82;21473;-76
2021/12/09 03:26:15;;;;;;;25.15;12.63;;;;;;;0.81;84.23;96984.71;1729109;83;21015;-76
2021/12/09 03:28:42;;;;;;;28.10;13.68;;;;;;;0.78;84.34;96985.60;1729115;83;21031;-76
2021/12/09 03:31:10;;;;;;;34.18;14.70;;;;;;;0.75;84.30;96982.16;1728831;83;22452;-76
2021/12/09 03:33:37;;;;;;;30.70;13.48;;;;;;;0.75;84.46;96981.70;1735022;82;21000;-76
2021/12/09 03:36:07;;;;;;;31.05;14.70;;;;;;;0.73;85.11;96979.55;1739000;82;21057;-76
2021/12/09 03:38:35;;;;;;;30.30;14.00;;;;;;;0.72;85.04;96980.86;1739103;82;21024;-76
2021/12/09 03:41:02;;;;;;;30.48;14.85;;;;;;;0.69;85.49;96974.35;1739082;82;21441;-75
2021/12/09 03:43:30;;;;;;;29.87;14.78;;;;;;;0.68;85.82;96974.80;1733875;82;20964;-75
2021/12/09 03:45:56;;;;;;;30.05;14.95;;;;;;;0.66;86.01;96973.93;1690812;82;21021;-76
2021/12/09 03:48:27;;;;;;;31.15;15.20;;;;;;;0.67;86.19;96979.60;1672770;85;21044;-76
2021/12/09 03:50:55;;;;;;;33.88;16.35;;;;;;;0.70;86.27;96973.50;1672625;86;21111;-76
2021/12/09 03:53:23;;;;;;;30.57;15.18;;;;;;;0.73;86.15;96973.45;1700117;81;21032;-76
2021/12/09 03:55:51;;;;;;;25.80;13.15;;;;;;;0.76;86.28;96976.05;1729353;82;21015;-76
2021/12/09 03:58:18;;;;;;;26.48;13.25;;;;;;;0.75;86.29;96975.64;1729016;83;21016;-76
2021/12/09 04:00:47;;;;;;;27.27;13.83;;;;;;;0.73;86.29;96983.47;1725411;82;21577;-76
2021/12/09 04:03:16;;;;;;;28.25;13.93;;;;;;;0.74;86.17;96984.31;1738255;82;21020;-76
2021/12/09 04:05:43;;;;;;;27.42;13.85;;;;;;;0.72;86.16;96976.95;1729366;83;21496;-76
2021/12/09 04:08:10;;;;;;;28.75;14.40;;;;;;;0.65;86.30;96970.48;1729290;83;21383;-76
2021/12/09 04:10:37;;;;;;;26.73;13.15;;;;;;;0.63;86.42;96964.84;1729127;82;21032;-76
2021/12/09 04:13:03;;;;;;;29.15;13.53;;;;;;;0.62;86.16;96969.19;1739297;82;21426;-76
2021/12/09 04:15:30;;;;;;;31.10;13.72;;;;;;;0.60;86.17;96969.64;1739236;82;21024;-76
2021/12/09 04:17:57;;;;;;;28.55;14.18;;;;;;;0.56;86.24;96971.84;1739039;82;20988;-76
2021/12/09 04:20:25;;;;;;;27.15;12.82;;;;;;;0.52;86.22;96967.09;1733288;82;21040;-76
2021/12/09 04:22:51;;;;;;;29.15;13.53;;;;;;;0.48;86.69;96971.01;1729195;83;21087;-76
2021/12/09 04:25:21;;;;;;;26.40;11.93;;;;;;;0.43;86.64;96976.69;1729258;83;21060;-76
2021/12/09 04:27:50;;;;;;;27.42;12.75;;;;;;;0.40;86.53;96973.66;1729346;83;21434;-76
2021/12/09 04:30:17;;;;;;;31.45;13.68;;;;;;;0.37;86.80;96977.16;1734385;82;20996;-76
2021/12/09 04:32:44;;;;;;;26.45;12.65;;;;;;;0.34;86.78;96978.46;1739048;82;21024;-76
2021/12/09 04:35:12;;;;;;;26.33;13.50;;;;;;;0.31;87.29;96978.50;1739165;82;21458;-76
2021/12/09 04:37:39;;;;;;;27.35;12.95;;;;;;;0.30;87.45;96982.41;1739195;82;20985;-76
2021/12/09 04:40:09;;;;;;;25.52;12.05;;;;;;;0.27;87.42;96981.98;1734672;82;21521;-76
2021/12/09 04:42:36;;;;;;;25.02;12.28;;;;;;;0.24;87.35;96984.17;1729140;83;21516;-76
2021/12/09 04:45:06;;;;;;;24.77;12.65;;;;;;;0.26;87.31;96983.71;1729120;83;21497;-76
2021/12/09 04:47:32;;;;;;;25.80;13.03;;;;;;;0.26;87.34;96987.62;1695068;83;21056;-76
2021/12/09 04:49:59;;;;;;;29.05;13.15;;;;;;;0.28;87.07;96988.92;1725135;82;21093;-76
2021/12/09 04:52:25;;;;;;;28.35;13.45;;;;;;;0.29;87.08;96986.73;1738977;82;21056;-77
2021/12/09 04:54:52;;;;;;;27.65;12.95;;;;;;;0.25;87.56;96982.45;1737783;80;21053;-77
2021/12/09 04:57:19;;;;;;;26.55;12.98;;;;;;;0.24;87.31;96989.39;1732441;83;20984;-77
2021/12/09 04:59:47;;;;;;;28.00;13.75;;;;;;;0.28;87.05;96988.92;1716402;80;20993;-77
2021/12/09 05:02:28;;;;;;;28.57;13.25;;;;;;;0.26;87.80;96982.41;1788481;80;21017;-76
2021/12/09 05:04:47;;;;;;;31.40;14.15;;;;;;;0.26;87.50;96977.20;1785952;80;21059;-76
2021/12/09 05:07:13;;;;;;;28.65;12.80;;;;;;;0.29;87.69;96976.77;1776719;80;21392;-76
2021/12/09 05:09:49;;;;;;;27.45;12.88;;;;;;;0.32;87.54;96981.52;1762807;80;20987;-76
2021/12/09 05:12:09;;;;;;;24.20;12.10;;;;;;;0.38;87.52;96984.55;1752937;82;21025;-76
2021/12/09 05:14:36;;;;;;;25.80;12.43;;;;;;;0.38;87.69;96977.58;1754557;82;21045;-76
2021/12/09 05:17:04;;;;;;;26.00;12.18;;;;;;;0.41;87.68;96981.91;1754797;82;21022;-76
2021/12/09 05:19:30;;;;;;;25.45;11.97;;;;;;;0.46;87.83;96980.59;1734545;80;21059;-76
2021/12/09 05:21:58;;;;;;;25.80;11.75;;;;;;;0.50;87.80;96987.07;1729333;83;20997;-77
2021/12/09 05:24:25;;;;;;;22.30;11.70;;;;;;;0.56;87.89;96977.48;1729319;83;21508;-77
2021/12/09 05:26:54;;;;;;;24.57;11.85;;;;;;;0.61;88.10;96981.80;1729327;83;21023;-76
2021/12/09 05:29:28;;;;;;;23.25;12.55;;;;;;;0.62;87.90;96987.89;1772496;80;20989;-76
2021/12/09 05:32:11;;;;;;;21.90;11.85;;;;;;;0.62;87.72;96986.13;1787939;80;21024;-76
2021/12/09 05:34:42;;;;;;;25.20;12.68;;;;;;;0.60;87.56;96985.72;1788500;80;21456;-77
2021/12/09 05:37:14;;;;;;;25.85;12.33;;;;;;;0.62;87.48;96988.73;1788732;80;20981;-77
2021/12/09 05:39:42;;;;;;;24.35;12.93;;;;;;;0.65;87.60;96995.68;1758794;80;21052;-77
2021/12/09 05:42:10;;;;;;;24.23;11.70;;;;;;;0.65;87.06;96990.04;1754509;82;21036;-76
2021/12/09 05:44:38;;;;;;;25.27;13.53;;;;;;;0.64;87.11;96980.48;1754566;82;21009;-76
2021/12/09 05:47:06;;;;;;;28.32;12.80;;;;;;;0.64;86.99;96981.80;1754624;82;21009;-76
2021/12/09 05:49:36;;;;;;;24.12;11.88;;;;;;;0.64;86.91;96967.87;1780102;80;21028;-77
2021/12/09 05:52:05;;;;;;;28.73;14.23;;;;;;;0.63;86.84;96977.42;1788404;80;20985;-77
2021/12/09 05:54:33;;;;;;;25.95;13.28;;;;;;;0.58;86.49;96970.53;1788635;80;21004;-78
2021/12/09 05:56:59;;;;;;;26.73;12.90;;;;;;;0.54;86.64;96964.45;1790962;80;20980;-77
2021/12/09 05:59:27;;;;;;;23.70;12.03;;;;;;;0.54;86.67;96972.72;1766737;80;20983;-77
2021/12/09 06:01:54;;;;;;;26.70;13.40;;;;;;;0.54;86.53;96964.91;1757317;81;21354;-77
2021/12/09 06:04:23;;;;;;;25.68;13.35;;;;;;;0.51;86.57;96967.94;1757282;82;21030;-76
2021/12/09 06:06:52;;;;;;;27.10;12.70;;;;;;;0.49;86.65;96974.91;1757224;81;20968;-76
2021/12/09 06:09:19;;;;;;;25.85;12.73;;;;;;;0.48;86.47;96979.70;1777664;80;20958;-76
2021/12/09 06:11:49;;;;;;;26.27;13.68;;;;;;;0.44;86.58;96980.59;1791230;80;21040;-76
2021/12/09 06:14:15;;;;;;;24.52;12.95;;;;;;;0.45;86.76;96996.66;1791418;80;20980;-76
2021/12/09 06:16:43;;;;;;;24.67;13.22;;;;;;;0.49;86.65;96997.08;1779217;80;21013;-76
2021/12/09 06:19:09;;;;;;;26.52;12.90;;;;;;;0.51;86.66;96997.08;1767400;80;20944;-75
2021/12/09 06:21:36;;;;;;;25.15;12.80;;;;;;;0.43;86.19;96995.81;1759488;81;21024;-76
2021/12/09 06:24:03;;;;;;;25.57;13.00;;;;;;;0.44;86.40;96988.84;1764228;80;21092;-78
2021/12/09 06:26:32;;;;;;;24.85;13.83;;;;;;;0.44;86.38;96987.54;1754113;80;21339;-77
2021/12/09 06:28:59;;;;;;;26.95;12.85;;;;;;;0.43;86.54;96988.42;1735415;82;21084;-77
2021/12/09 06:31:26;;;;;;;23.80;11.95;;;;;;;0.48;86.66;96996.66;1755120;81;21615;-77
2021/12/09 06:33:53;;;;;;;25.23;12.23;;;;;;;0.51;86.50;96991.86;1755845;82;21072;-77
2021/12/09 06:36:20;;;;;;;23.73;12.82;;;;;;;0.49;86.23;96987.95;1755354;80;20968;-77
2021/12/09 06:38:47;;;;;;;24.80;12.93;;;;;;;0.46;86.10;96990.56;1742245;82;21019;-77
2021/12/09 06:41:14;;;;;;;22.50;12.33;;;;;;;0.50;86.34;96983.62;1720332;83;21033;-77
2021/12/09 06:43:41;;;;;;;20.60;11.25;;;;;;;0.51;86.36;96987.95;1720993;83;21041;-77
2021/12/09 06:46:10;;;;;;;24.45;13.08;;;;;;;0.51;86.26;96980.98;1720758;83;21058;-78
2021/12/09 06:48:38;;;;;;;25.00;13.05;;;;;;;0.52;86.02;96990.55;1790300;80;20992;-75
2021/12/09 06:51:06;;;;;;;21.80;12.55;;;;;;;0.52;86.09;96986.64;1791257;80;21482;-76
2021/12/09 06:53:37;;;;;;;25.48;13.08;;;;;;;0.53;85.90;96999.22;1735313;81;21406;-76
2021/12/09 06:56:05;;;;;;;25.65;13.50;;;;;;;0.56;86.15;96998.34;1752791;82;21064;-76
2021/12/09 06:58:32;;;;;;;21.05;10.95;;;;;;;0.60;86.11;97002.66;1747297;82;20996;-76
2021/12/09 07:01:00;;;;;;;24.70;12.33;;;;;;;0.62;85.98;96995.72;1732006;82;21434;-76
2021/12/09 07:03:28;;;;;;;23.35;12.13;;;;;;;0.64;85.97;97006.56;1724740;82;21036;-77
2021/12/09 07:05:56;;;;;;;23.65;12.70;;;;;;;0.65;86.04;97002.20;1728889;82;21008;-80
2021/12/09 07:08:23;;;;;;;25.00;13.40;;;;;;;0.68;86.17;97005.22;1745427;82;21048;-82
2021/12/09 07:10:51;;;;;;;21.68;11.63;;;;;;;0.70;85.87;96993.06;1745286;82;21021;-82
2021/12/09 07:13:18;;;;;;;22.93;11.73;;;;;;;0.67;85.93;96991.34;1745841;82;21012;-82
2021/12/09 07:15:44;;;;;;;18.80;10.60;;;;;;;0.66;85.94;96989.58;1745547;82;21025;-83
2021/12/09 07:18:11;;;;;;;18.10;11.18;;;;;;;0.66;85.85;96984.36;1745399;82;21052;-82
2021/12/09 07:20:38;;;;;;;17.25;10.15;;;;;;;0.61;85.62;96985.71;1745927;82;21013;-82
2021/12/09 07:23:05;;;;;;;19.32;10.43;;;;;;;0.60;85.80;96976.16;1746357;82;21378;-82
2021/12/09 07:25:31;;;;;;;18.50;10.58;;;;;;;0.61;85.77;96978.31;1747387;82;20988;-82
2021/12/09 07:27:59;;;;;;;19.23;10.08;;;;;;;0.59;85.63;96982.27;1747202;82;21021;-82
2021/12/09 07:30:27;;;;;;;23.10;10.55;;;;;;;0.59;85.63;96981.38;1747262;82;21052;-82
2021/12/09 07:32:54;;;;;;;20.10;10.93;;;;;;;0.62;85.61;96986.59;1747203;82;21465;-82
2021/12/09 07:35:23;;;;;;;22.42;10.35;;;;;;;0.64;85.72;96994.83;1747265;82;21021;-82
2021/12/09 07:37:49;;;;;;;21.55;10.13;;;;;;;0.69;85.83;96988.27;1747445;82;20985;-82
2021/12/09 07:40:18;;;;;;;18.10;9.55;;;;;;;0.72;85.80;96995.20;1747312;82;21090;-82
2021/12/09 07:42:45;;;;;;;17.70;9.35;;;;;;;0.70;85.66;96985.23;1747245;82;21435;-82
2021/12/09 07:45:14;;;;;;;19.45;9.65;;;;;;;0.70;85.73;96993.91;1747402;82;21032;-82
2021/12/09 07:47:42;;;;;;;16.45;8.88;;;;;;;0.71;85.41;96993.02;1747334;82;21517;-82
2021/12/09 07:50:14;;;;;;;16.27;8.78;;;;;;;0.70;85.47;96987.84;1747310;82;21128;-83
2021/12/09 07:52:43;;;;;;;15.25;8.68;;;;;;;0.65;85.47;96988.73;1747438;82;21008;-83
2021/12/09 07:55:12;;;;;;;16.00;9.55;;;;;;;0.67;85.59;96983.94;1747289;82;21403;-82
2021/12/09 07:57:39;;;;;;;20.10;9.63;;;;;;;0.67;85.52;96979.60;1747142;80;21017;-82
2021/12/09 08:00:17;;;;;;;16.32;9.68;;;;;;;0.68;85.73;96966.11;1747338;82;21040;-82
2021/12/09 08:02:45;;;;;;;15.78;8.80;;;;;;;0.71;85.78;96959.58;1747144;82;20993;-82
2021/12/09 08:05:14;;;;;;;18.12;9.63;;;;;;;0.72;85.57;96960.87;1747354;82;21053;-82
2021/12/09 08:07:41;;;;;;;15.43;7.87;;;;;;;0.76;85.67;96970.84;1747269;82;21048;-82
2021/12/09 08:10:12;;;;;;;16.10;8.65;;;;;;;0.78;85.61;96977.78;1747278;82;21016;-83
2021/12/09 08:12:39;;;;;;;15.68;8.45;;;;;;;0.78;85.51;96973.86;1747217;82;21406;-83
2021/12/09 08:15:09;;;;;;;27.13;13.93;;;;;;;0.79;85.64;96965.16;1747352;82;21095;-83
2021/12/09 08:20:11;;;;;;;16.27;8.20;;;;;;;0.89;85.44;96971.61;1747290;82;21031;-84
2021/12/09 08:22:39;;;;;;;13.25;7.60;;;;;;;0.91;85.49;96968.11;1747368;82;20977;-82
2021/12/09 08:25:08;;;;;;;13.38;7.03;;;;;;;0.97;85.23;96967.64;1747280;82;21020;-82
2021/12/09 08:27:36;;;;;;;13.43;7.42;;;;;;;1.01;85.40;96964.12;1747216;82;21463;-82
2021/12/09 08:30:06;;;;;;;13.43;7.30;;;;;;;1.04;85.32;96962.81;1747193;82;21470;-82
2021/12/09 08:32:34;;;;;;;14.00;7.62;;;;;;;1.10;85.02;96970.58;1747201;82;21029;-82
2021/12/09 08:35:01;;;;;;;14.85;8.18;;;;;;;1.13;85.07;96971.84;1747310;82;21013;-82
2021/12/09 08:37:29;;;;;;;13.80;8.20;;;;;;;1.15;84.97;96969.22;1747060;82;21036;-82
2021/12/09 08:39:56;;;;;;;17.35;8.78;;;;;;;1.21;85.10;96968.31;1747188;82;21012;-83
2021/12/09 08:42:24;;;;;;;14.50;7.65;;;;;;;1.18;84.63;96967.91;1747232;82;21450;-83
2021/12/09 08:44:53;;;;;;;14.00;8.20;;;;;;;1.18;84.77;96965.30;1747198;82;21454;-84
2021/12/09 08:47:20;;;;;;;15.48;8.68;;;;;;;1.22;85.02;96974.84;1747331;82;21037;-84
2021/12/09 08:49:47;;;;;;;15.72;8.15;;;;;;;1.29;84.94;96962.14;1747653;82;21435;-84
2021/12/09 08:52:14;;;;;;;16.93;8.85;;;;;;;1.36;84.96;96956.88;1747352;82;21016;-84
2021/12/09 08:54:41;;;;;;;17.40;8.88;;;;;;;1.43;85.10;96963.33;1747477;82;21004;-84
2021/12/09 08:57:10;;;;;;;14.55;8.38;;;;;;;1.48;84.63;96968.50;1747388;82;20979;-83
2021/12/09 08:59:37;;;;;;;16.62;8.85;;;;;;;1.59;85.38;96974.92;1753658;82;21068;-84
2021/12/09 09:02:05;;;;;;;17.65;8.70;;;;;;;1.64;85.32;96970.95;1755024;82;21055;-84
2021/12/09 09:04:31;;;;;;;17.37;9.38;;;;;;;1.69;84.95;96966.54;1754855;82;21490;-83
2021/12/09 09:07:01;;;;;;;15.35;9.08;;;;;;;1.74;84.55;96955.59;1759291;80;21541;-83
2021/12/09 09:09:33;;;;;;;15.13;8.75;;;;;;;1.77;84.65;96960.80;1786423;80;21012;-84
2021/12/09 09:11:56;;;;;;;14.68;8.00;;;;;;;1.84;84.54;96951.15;1785895;80;21017;-84
2021/12/09 09:14:23;;;;;;;16.52;8.45;;;;;;;1.86;83.02;96941.99;1786392;80;21074;-84
2021/12/09 09:16:50;;;;;;;18.40;9.23;;;;;;;1.86;83.40;96936.77;1781955;80;21463;-84
2021/12/09 09:19:16;;;;;;;16.15;8.68;;;;;;;1.86;83.10;96935.45;1724981;83;21068;-83
2021/12/09 09:21:43;;;;;;;14.87;8.88;;;;;;;1.87;82.97;96935.88;1724887;83;21028;-82
2021/12/09 09:24:10;;;;;;;16.00;7.17;;;;;;;1.88;83.23;96941.09;1725024;83;21000;-83
2021/12/09 09:26:38;;;;;;;14.73;7.92;;;;;;;1.86;82.64;96947.22;1724793;83;21028;-83
2021/12/09 09:29:05;;;;;;;14.23;7.62;;;;;;;1.84;82.71;96940.23;1755623;80;21330;-83
2021/12/09 09:31:33;;;;;;;14.30;7.92;;;;;;;1.90;82.85;96947.58;1754904;82;20964;-82
2021/12/09 09:34:02;;;;;;;15.45;8.10;;;;;;;1.94;82.93;96950.16;1754751;82;21007;-82
2021/12/09 09:36:39;;;;;;;15.83;8.05;;;;;;;2.01;82.92;96952.69;1773029;80;20960;-83
2021/12/09 09:39:16;;;;;;;13.05;7.50;;;;;;;2.04;82.50;96948.73;1786182;80;21116;-83
2021/12/09 09:41:36;;;;;;;15.23;7.95;;;;;;;2.08;82.60;96939.52;1784581;80;21052;-82
2021/12/09 09:44:13;;;;;;;12.35;7.20;;;;;;;2.13;82.42;96922.91;1782158;80;21035;-83
2021/12/09 09:46:39;;;;;;;13.68;7.75;;;;;;;2.08;82.16;96940.83;1786350;80;21040;-82
2021/12/09 09:49:06;;;;;;;14.78;8.13;;;;;;;2.07;81.87;96933.88;1786410;80;20987;-83
2021/12/09 09:51:36;;;;;;;14.70;8.10;;;;;;;2.09;82.47;96920.36;1786386;80;21028;-83
2021/12/09 09:54:05;;;;;;;13.98;7.47;;;;;;;2.19;82.48;96914.98;1784627;80;21413;-83
2021/12/09 09:56:34;;;;;;;15.70;8.15;;;;;;;2.24;82.36;96914.05;1786425;80;21020;-83
2021/12/09 09:59:08;;;;;;;17.27;9.15;;;;;;;2.34;82.31;96912.61;1788700;80;21040;-83
2021/12/09 10:01:38;;;;;;;14.45;8.25;;;;;;;2.42;82.09;96905.53;1791393;80;20973;-83
2021/12/09 10:04:12;;;;;;;15.32;7.72;;;;;;;2.54;82.18;96902.30;1773674;80;20977;-83
2021/12/09 10:06:43;;;;;;;13.35;7.22;;;;;;;2.62;81.62;96886.06;1719613;83;21005;-83
2021/12/09 10:09:12;;;;;;;14.30;7.90;;;;;;;2.72;81.38;96894.17;1718954;83;21017;-85
2021/12/09 10:11:40;;;;;;;15.90;8.10;;;;;;;2.82;80.75;96887.02;1719333;83;21020;-83
2021/12/09 10:14:17;;;;;;;14.83;8.13;;;;;;;2.90;80.08;96876.42;1719695;80;21000;-83
2021/12/09 10:16:45;;;;;;;14.45;8.60;;;;;;;2.96;79.44;96868.92;1719167;83;20996;-83
2021/12/09 10:19:21;;;;;;;18.55;8.70;;;;;;;3.05;79.82;96877.93;1719078;83;21078;-83
2021/12/09 10:21:52;;;;;;;15.98;8.70;;;;;;;3.02;78.44;96864.45;1719512;83;21036;-83
2021/12/09 10:24:18;;;;;;;17.07;9.15;;;;;;;2.94;79.22;96860.25;1713036;80;21393;-83
2021/12/09 10:26:48;;;;;;;16.90;9.05;;;;;;;3.00;79.73;96860.98;1791432;80;21047;-83
2021/12/09 10:29:37;;;;;;;15.90;8.98;;;;;;;3.03;79.49;96873.15;1791249;80;21000;-84
2021/12/09 10:32:12;;;;;;;18.70;8.83;;;;;;;3.03;79.17;96884.49;1751221;80;21009;-82
2021/12/09 10:34:46;;;;;;;16.45;8.43;;;;;;;2.96;78.48;96901.64;1741818;80;21277;-82
2021/12/09 10:37:31;;;;;;;13.05;7.50;;;;;;;2.89;78.51;96911.34;1775567;80;21028;-83
2021/12/09 10:40:14;;;;;;;17.65;8.78;;;;;;;2.88;78.46;96911.81;1729603;80;20972;-83
2021/12/09 10:42:49;;;;;;;16.77;8.38;;;;;;;2.81;78.88;96893.16;1719261;83;21087;-83
2021/12/09 10:45:29;;;;;;;20.32;9.45;;;;;;;2.83;79.37;96891.36;1737745;80;21404;-82
2021/12/09 10:48:04;;;;;;;15.70;9.08;;;;;;;2.80;78.34;96893.17;1762679;80;21032;-82
2021/12/09 10:50:58;;;;;;;18.42;9.15;;;;;;;2.90;79.98;96886.46;1753581;80;21020;-83
2021/12/09 10:56:01;;;;;;;14.63;8.13;;;;;;;3.45;76.96;96850.59;1757355;82;20995;-82
2021/12/09 10:58:42;;;;;;;15.63;8.08;;;;;;;3.34;76.12;96845.11;1755798;82;21370;-83
2021/12/09 11:01:14;;;;;;;16.87;8.15;;;;;;;3.11;76.60;96859.95;1717893;80;21108;-83
2021/12/09 11:03:46;;;;;;;18.42;9.30;;;;;;;3.08;77.55;96852.14;1713674;83;21024;-82
2021/12/09 11:06:18;;;;;;;17.12;8.83;;;;;;;2.96;77.35;96850.60;1713916;84;20996;-83
2021/12/09 11:08:49;;;;;;;17.23;9.35;;;;;;;2.85;77.69;96862.56;1720648;80;21013;-83
2021/12/09 11:11:33;;;;;;;17.12;8.83;;;;;;;2.75;78.13;96864.02;1785819;80;21039;-83
2021/12/09 11:14:12;;;;;;;18.50;8.78;;;;;;;2.73;78.87;96858.39;1785768;80;21409;-82
2021/12/09 11:16:51;;;;;;;17.52;8.85;;;;;;;2.76;78.98;96864.89;1785632;80;21037;-82
2021/12/09 11:22:05;;;;;;;16.20;8.90;;;;;;;2.83;78.89;96855.19;1713846;84;21001;-82
2021/12/09 11:24:39;;;;;;;19.30;10.40;;;;;;;2.81;78.91;96843.44;1713821;83;21068;-82
2021/12/09 11:27:12;;;;;;;18.73;9.40;;;;;;;2.75;78.50;96839.63;1713988;84;21001;-82
2021/12/09 11:29:48;;;;;;;16.53;9.03;;;;;;;2.69;79.08;96841.05;1740482;80;20941;-83
2021/12/09 11:32:44;;;;;;;19.70;10.55;;;;;;;2.73;79.35;96840.95;1785788;80;20997;-82
2021/12/09 11:35:20;;;;;;;17.60;9.00;;;;;;;2.71;79.35;96832.72;1783360;80;21060;-81
2021/12/09 11:38:21;;;;;;;19.32;9.63;;;;;;;2.77;79.30;96820.83;1782808;80;21016;-81
2021/12/09 11:40:35;;;;;;;18.42;9.40;;;;;;;2.93;79.47;96824.05;1755389;80;21003;-81
2021/12/09 11:43:00;;;;;;;17.82;9.50;;;;;;;2.99;78.87;96820.00;1748584;82;21000;-82
2021/12/09 11:45:32;;;;;;;21.02;9.80;;;;;;;3.07;79.06;96824.25;1749453;82;20956;-82